Spring Lake Heights, New Jersey
Current Conditions -  °F | °C
As of 12:55 AM on Friday 31 Oct 2014 (Local Time) from KBLM Reporting Station
Clear Clear  
Wind Chill: 36°   Ceiling: Unl
Heat Index: 39°   Visibility: 10mi
Dew Point: 30°   Wind: 5mph
Humidity: 70%   Direction: 310°NW
Pressure: 30.02"   Gusts: NA
Location:  40.1528°N, 74.0364°W
Report Text: KBLM 310455Z AUTO 31004KT 10SM CLR 04/M01 A3002 RMK AO1
Loading
Personal Weather Stations






























Interactive Weather Map New forecast layout! Learn more

10-Day Weather Forecast

Advertisements
Track Severe Weather on mobile